Time;durP1;ratioP1;P1;durP2;ratioP2;P2;SDS_P1;SDS_P2;PMS_P1;PMS_P2;Temp;Humidity;BMP_temperature;BMP_pressure;BME280_temperature;BME280_humidity;BME280_pressure;Samples;Min_cycle;Max_cycle;Signal;HPM_P1;HPM_P2
2022/08/13 00:02:20;;;;;;;0.95;0.75;;;;;;;21.32;45.78;96505.09;10328604;28;20556;-30
2022/08/13 00:07:20;;;;;;;0.90;0.80;;;;;;;21.37;45.81;96513.53;10325992;28;20038;-30
2022/08/13 00:17:51;;;;;;;1.52;0.93;;;;;;;21.54;46.10;96501.38;10322476;28;20559;-31
2022/08/13 00:22:54;;;;;;;2.78;0.80;;;;;;;21.63;45.81;96506.34;10324838;28;20027;-31
2022/08/13 00:27:57;;;;;;;1.83;0.90;;;;;;;21.53;45.99;96504.81;10323789;28;20042;-30
2022/08/13 00:32:59;;;;;;;0.80;0.60;;;;;;;21.44;46.28;96494.75;10327284;28;20120;-31
2022/08/13 00:37:59;;;;;;;0.93;0.80;;;;;;;21.38;45.11;96484.66;10327916;28;20549;-30
2022/08/13 00:43:03;;;;;;;1.15;0.65;;;;;;;21.46;45.32;96487.91;10328872;28;20030;-33
2022/08/13 00:53:25;;;;;;;0.70;0.70;;;;;;;21.38;44.91;96494.84;10325200;28;20073;-31
2022/08/13 00:58:27;;;;;;;0.82;0.82;;;;;;;21.35;45.40;96477.06;10328453;28;21231;-31
2022/08/13 01:03:30;;;;;;;1.83;1.00;;;;;;;21.26;45.08;96474.66;10325822;28;20173;-32
2022/08/13 01:08:34;;;;;;;1.35;0.80;;;;;;;21.24;44.66;96465.34;10326864;28;20471;-33
2022/08/13 01:13:37;;;;;;;1.13;0.88;;;;;;;21.28;44.73;96478.00;10324268;28;20432;-31
2022/08/13 01:18:39;;;;;;;1.63;1.42;;;;;;;21.27;45.04;96483.13;10326363;28;20074;-30
2022/08/13 01:23:44;;;;;;;0.73;0.70;;;;;;;21.25;44.53;96483.16;10322883;28;20038;-31
2022/08/13 01:28:47;;;;;;;1.02;0.93;;;;;;;21.26;45.03;96476.34;10322224;28;20038;-31
2022/08/13 01:33:50;;;;;;;3.30;0.90;;;;;;;21.28;45.07;96472.06;10323957;28;20065;-31
2022/08/13 01:38:50;;;;;;;0.70;0.70;;;;;;;21.26;44.93;96482.28;10326501;28;20053;-30
2022/08/13 01:43:52;;;;;;;2.47;0.73;;;;;;;21.24;45.05;96476.38;10326304;28;20045;-30
2022/08/13 01:54:11;;;;;;;1.95;0.90;;;;;;;21.17;44.67;96477.34;10319149;28;20096;-31
2022/08/13 01:59:12;;;;;;;1.25;1.10;;;;;;;21.14;44.66;96474.81;10323992;28;20447;-31
2022/08/13 02:04:15;;;;;;;1.47;0.73;;;;;;;21.13;44.87;96467.22;10325799;28;20038;-30
2022/08/13 02:09:17;;;;;;;1.20;1.10;;;;;;;21.11;44.96;96467.22;10323467;28;20421;-31
2022/08/13 02:14:17;;;;;;;2.95;1.25;;;;;;;21.05;44.89;96457.13;10325241;28;20045;-31
2022/08/13 02:19:18;;;;;;;2.42;0.70;;;;;;;21.16;45.16;96462.94;10324585;28;20030;-31
2022/08/13 02:24:18;;;;;;;1.10;0.87;;;;;;;21.17;45.17;96469.69;10320334;28;20147;-31
2022/08/13 02:29:19;;;;;;;0.83;0.70;;;;;;;21.15;45.41;96462.94;10319182;28;20548;-31
2022/08/13 02:34:19;;;;;;;2.15;0.93;;;;;;;21.16;45.06;96464.63;10323383;28;20038;-31
2022/08/13 02:39:19;;;;;;;0.87;0.80;;;;;;;21.22;45.69;96472.19;10324127;28;20034;-31
2022/08/13 02:44:20;;;;;;;1.05;0.80;;;;;;;21.16;44.90;96468.03;10320836;28;20121;-35
2022/08/13 02:49:21;;;;;;;0.70;0.70;;;;;;;21.13;44.73;96465.50;10324415;28;20042;-30
2022/08/13 02:54:21;;;;;;;0.60;0.60;;;;;;;21.16;44.68;96462.94;10321338;28;20048;-32
2022/08/13 02:59:24;;;;;;;0.63;0.57;;;;;;;21.17;44.94;96458.66;10324367;28;20072;-30
2022/08/13 03:04:24;;;;;;;0.70;0.70;;;;;;;21.16;45.31;96470.56;10320938;28;20046;-31
2022/08/13 03:09:24;;;;;;;1.00;0.80;;;;;;;21.20;44.85;96466.25;10320009;28;20452;-30
2022/08/13 03:14:28;;;;;;;0.80;0.80;;;;;;;21.17;45.11;96474.78;10323718;28;20676;-31
2022/08/13 03:19:29;;;;;;;0.77;0.65;;;;;;;21.14;45.08;96485.00;10323193;28;20034;-31
2022/08/13 03:24:30;;;;;;;1.42;0.88;;;;;;;21.13;45.17;96482.50;10319054;28;20483;-31
2022/08/13 03:29:30;;;;;;;0.97;0.70;;;;;;;21.11;45.15;96476.56;10318159;28;20407;-30
2022/08/13 03:34:31;;;;;;;1.13;0.87;;;;;;;21.09;45.14;96480.84;10319933;28;20038;-30
2022/08/13 03:39:32;;;;;;;1.10;0.80;;;;;;;21.07;45.14;96483.41;10322770;28;20070;-30
2022/08/13 03:44:32;;;;;;;0.85;0.85;;;;;;;21.07;45.18;96487.66;10323162;28;20711;-31
2022/08/13 03:49:37;;;;;;;0.80;0.80;;;;;;;21.09;45.23;96489.34;10319778;28;20068;-31
2022/08/13 03:54:38;;;;;;;1.33;1.10;;;;;;;21.11;45.45;96495.25;10317287;28;20432;-30
2022/08/13 03:59:38;;;;;;;1.02;0.88;;;;;;;21.25;45.05;96489.94;10329450;28;20478;-32
2022/08/13 04:04:39;;;;;;;1.05;0.80;;;;;;;21.17;45.39;96504.50;10330134;28;20042;-30
2022/08/13 04:09:39;;;;;;;1.25;1.08;;;;;;;21.11;45.58;96505.41;10329091;28;20096;-30
2022/08/13 04:14:41;;;;;;;1.40;0.90;;;;;;;21.15;45.45;96507.03;10326152;28;20046;-30
2022/08/13 04:19:42;;;;;;;0.90;0.90;;;;;;;21.16;45.33;96501.13;10327900;28;20042;-30
2022/08/13 04:24:44;;;;;;;1.77;1.00;;;;;;;21.09;45.44;96512.25;10325367;28;20035;-31
2022/08/13 04:29:44;;;;;;;0.90;0.80;;;;;;;21.06;45.33;96509.72;10323910;28;20058;-30
2022/08/13 04:34:44;;;;;;;2.93;1.37;;;;;;;21.05;45.47;96510.59;10328040;28;20514;-30
2022/08/13 04:39:45;;;;;;;2.73;1.00;;;;;;;21.04;45.61;96510.63;10328159;28;20524;-31
2022/08/13 04:44:47;;;;;;;1.00;0.83;;;;;;;21.06;45.70;96504.63;10322735;28;20069;-30
2022/08/13 04:49:49;;;;;;;1.13;1.00;;;;;;;21.10;46.18;96508.84;10328642;28;20109;-32
2022/08/13 04:54:50;;;;;;;1.42;1.25;;;;;;;21.14;45.71;96510.47;10327123;28;20121;-31
2022/08/13 04:59:51;;;;;;;2.00;1.00;;;;;;;21.16;45.49;96508.75;10326156;28;20065;-31
2022/08/13 05:04:52;;;;;;;1.40;1.10;;;;;;;21.09;45.49;96517.34;10327403;28;20046;-31
2022/08/13 05:09:53;;;;;;;1.25;0.90;;;;;;;21.12;45.97;96514.75;10324248;28;20034;-30
2022/08/13 05:14:53;;;;;;;1.10;1.00;;;;;;;21.08;46.00;96515.66;10327078;28;20042;-30
2022/08/13 05:19:54;;;;;;;1.47;0.93;;;;;;;21.07;45.71;96511.41;10326257;28;20034;-30
2022/08/13 05:24:54;;;;;;;1.20;1.00;;;;;;;21.06;45.70;96516.53;10322519;28;20042;-30
2022/08/13 05:29:58;;;;;;;2.07;1.20;;;;;;;20.97;45.87;96499.66;10320310;28;20393;-30
2022/08/13 05:34:59;;;;;;;0.93;0.85;;;;;;;21.03;46.45;96506.38;10326366;28;20041;-30
2022/08/13 05:40:00;;;;;;;2.40;1.27;;;;;;;21.13;45.55;96510.50;10326090;28;20026;-31
2022/08/13 05:45:01;;;;;;;1.67;1.00;;;;;;;21.13;46.04;96513.06;10326010;28;20041;-31
2022/08/13 05:50:12;;;;;;;1.92;1.10;;;;;;;21.10;45.98;96518.16;10322702;28;20436;-30
2022/08/13 05:55:13;;;;;;;1.50;1.00;;;;;;;21.04;46.01;96511.44;10324445;28;20038;-29
2022/08/13 06:05:32;;;;;;;1.48;0.98;;;;;;;21.07;46.44;96516.50;10325241;28;20041;-31
2022/08/13 06:10:33;;;;;;;3.47;1.23;;;;;;;21.10;46.11;96498.66;10317531;28;20038;-31
2022/08/13 06:15:35;;;;;;;2.70;1.15;;;;;;;21.09;46.35;96502.06;10322372;28;20034;-30
2022/08/13 06:20:35;;;;;;;2.58;0.70;;;;;;;21.33;46.34;96495.78;10318795;28;20034;-31
2022/08/13 06:25:35;;;;;;;6.47;1.30;;;;;;;21.31;46.25;96483.06;10309994;28;20034;-31
2022/08/13 06:30:37;;;;;;;1.58;1.10;;;;;;;21.72;44.80;96493.47;10317108;28;20736;-30
2022/08/13 06:35:38;;;;;;;1.95;1.23;;;;;;;21.65;45.84;96485.97;10312558;28;20038;-30
2022/08/13 06:40:42;;;;;;;6.35;1.75;;;;;;;21.50;46.45;96487.03;10313320;28;20504;-30
2022/08/13 06:45:42;;;;;;;3.42;1.00;;;;;;;21.77;46.14;96489.16;10315200;28;20037;-32
2022/08/13 06:50:43;;;;;;;6.32;1.30;;;;;;;21.96;45.48;96487.97;10316472;28;20493;-30
2022/08/13 06:55:47;;;;;;;6.00;1.67;;;;;;;21.98;45.47;96498.97;10318664;28;20059;-30
2022/08/13 07:00:49;;;;;;;0.98;0.90;;;;;;;21.73;46.06;96495.16;10309755;28;20071;-31
2022/08/13 07:05:49;;;;;;;2.92;1.13;;;;;;;21.67;45.60;96490.19;10317732;28;20081;-31
2022/08/13 07:10:51;;;;;;;1.40;1.07;;;;;;;22.07;46.05;96492.88;10318211;28;20053;-30
2022/08/13 07:15:52;;;;;;;4.25;1.10;;;;;;;22.16;45.61;96483.34;10314573;28;21980;-30
2022/08/13 07:20:53;;;;;;;3.40;1.58;;;;;;;22.18;45.47;96481.63;10320306;28;20511;-31
2022/08/13 07:25:56;;;;;;;3.33;1.42;;;;;;;21.93;45.80;96484.63;10318402;28;20046;-31
2022/08/13 07:30:57;;;;;;;4.50;1.80;;;;;;;21.89;46.10;96485.56;10323258;28;20034;-30
2022/08/13 07:36:03;;;;;;;15.32;1.75;;;;;;;21.97;45.97;96478.63;10330393;28;20030;-30
2022/08/13 07:41:05;;;;;;;1.45;1.30;;;;;;;22.03;45.51;96481.91;10326029;28;20058;-30
2022/08/13 07:46:09;;;;;;;4.95;1.30;;;;;;;22.03;45.66;96479.34;10328167;28;20612;-31
2022/08/13 07:51:20;;;;;;;2.42;1.20;;;;;;;22.05;45.87;96475.06;10319638;28;20085;-31
2022/08/13 07:56:28;;;;;;;6.03;1.33;;;;;;;22.05;45.93;96469.97;10327556;28;20061;-31
2022/08/13 08:01:30;;;;;;;4.53;1.27;;;;;;;22.03;45.94;96466.59;10324287;28;20120;-31
2022/08/13 08:06:32;;;;;;;2.88;1.30;;;;;;;22.17;46.22;96463.81;10324329;28;20096;-31
2022/08/13 08:16:53;;;;;;;3.25;1.50;;;;;;;22.08;45.98;96457.16;10324960;28;20081;-31
2022/08/13 08:21:57;;;;;;;2.50;1.58;;;;;;;22.09;46.40;96466.50;10324718;28;20048;-31
2022/08/13 08:27:07;;;;;;;3.25;1.25;;;;;;;22.09;46.52;96463.97;10323659;28;20022;-30
2022/08/13 08:32:10;;;;;;;8.10;1.67;;;;;;;22.09;46.70;96458.84;10328204;28;20046;-31
2022/08/13 08:42:35;;;;;;;3.13;1.38;;;;;;;22.13;46.58;96462.19;10325002;28;20106;-31
2022/08/13 08:42:38;;;;;;;2.20;1.30;;;;;;;22.14;46.81;96461.31;10327962;28;20092;-30
2022/08/13 08:47:40;;;;;;;1.63;1.27;;;;;;;22.15;46.89;96463.00;10320368;28;20122;-30
2022/08/13 08:58:05;;;;;;;4.13;1.10;;;;;;;22.28;46.58;96466.97;10321368;28;20096;-31
2022/08/13 09:03:07;;;;;;;4.45;1.55;;;;;;;22.29;46.37;96471.22;10325935;28;20038;-30
2022/08/13 09:08:08;;;;;;;3.28;1.27;;;;;;;22.19;46.88;96462.91;10326610;28;20472;-30
2022/08/13 09:13:09;;;;;;;2.53;1.10;;;;;;;22.12;47.09;96466.44;10327325;28;20042;-30
2022/08/13 09:18:10;;;;;;;6.82;2.38;;;;;;;22.11;47.21;96446.91;10326484;28;20097;-31
2022/08/13 09:23:14;;;;;;;3.22;1.55;;;;;;;22.17;47.04;96454.47;10321495;28;20085;-30
2022/08/13 09:28:23;;;;;;;2.63;1.58;;;;;;;22.15;46.80;96456.16;10322773;28;20508;-30
2022/08/13 09:33:28;;;;;;;5.50;1.50;;;;;;;22.27;46.72;96450.84;10324273;28;20030;-31
2022/08/13 09:38:30;;;;;;;5.53;1.27;;;;;;;22.17;46.78;96453.59;10324145;28;20064;-31
2022/08/13 09:43:38;;;;;;;4.43;1.80;;;;;;;22.07;47.25;96468.22;10320765;28;20032;-32
2022/08/13 09:48:38;;;;;;;4.13;1.23;;;;;;;22.02;47.08;96458.97;10318791;28;20064;-30
2022/08/13 09:53:40;;;;;;;6.20;1.53;;;;;;;21.99;47.18;96466.69;10321640;28;20036;-31
2022/08/13 09:58:40;;;;;;;2.75;0.90;;;;;;;22.03;47.06;96460.66;10326575;28;20049;-31
2022/08/13 10:03:41;;;;;;;3.47;1.30;;;;;;;21.98;47.14;96458.19;10321848;28;20041;-31
2022/08/13 10:08:41;;;;;;;2.60;1.45;;;;;;;22.02;47.35;96454.72;10322296;28;20588;-31
2022/08/13 10:13:42;;;;;;;1.13;1.00;;;;;;;22.16;47.05;96436.63;10316630;28;20476;-28
2022/08/13 10:18:43;;;;;;;2.17;1.00;;;;;;;22.23;47.08;96444.13;10320096;28;20042;-31
2022/08/13 10:23:44;;;;;;;3.22;1.30;;;;;;;22.12;47.15;96446.03;10317804;28;20042;-31
2022/08/13 10:28:44;;;;;;;3.70;1.60;;;;;;;22.07;47.08;96432.53;10320068;28;20042;-30
2022/08/13 10:33:44;;;;;;;4.03;1.23;;;;;;;22.01;48.54;96439.44;10317794;28;20109;-31
2022/08/13 10:38:45;;;;;;;7.60;1.40;;;;;;;22.00;48.57;96430.97;10318092;28;20034;-31
2022/08/13 10:43:45;;;;;;;6.93;1.40;;;;;;;22.06;48.44;96427.47;10315083;28;20604;-30
2022/08/13 10:48:55;;;;;;;10.60;1.47;;;;;;;22.08;48.06;96431.66;10312702;28;20030;-31
2022/08/13 10:53:59;;;;;;;2.83;1.25;;;;;;;22.12;47.82;96429.88;10323445;28;20034;-32
2022/08/13 10:59:03;;;;;;;2.33;1.20;;;;;;;22.21;47.39;96412.72;10321529;28;20042;-31
2022/08/13 11:04:05;;;;;;;5.47;1.40;;;;;;;22.28;47.11;96416.81;10325310;28;20080;-30
2022/08/13 11:09:06;;;;;;;4.97;1.20;;;;;;;22.18;47.52;96414.47;10331898;28;20037;-31
2022/08/13 11:14:06;;;;;;;2.95;1.20;;;;;;;22.13;47.92;96406.91;10331527;28;20413;-30
2022/08/13 11:19:14;;;;;;;5.53;1.30;;;;;;;22.11;47.56;96403.56;10334063;28;20432;-30
2022/08/13 11:24:15;;;;;;;3.28;1.08;;;;;;;22.06;47.41;96390.06;10325902;28;20058;-31
2022/08/13 11:29:15;;;;;;;3.57;1.50;;;;;;;22.10;47.84;96396.78;10325196;28;20122;-31
2022/08/13 11:34:16;;;;;;;2.63;1.38;;;;;;;22.13;47.95;96422.22;10328707;28;20046;-30
2022/08/13 11:39:16;;;;;;;3.35;1.15;;;;;;;22.15;47.92;96415.38;10330603;28;20046;-31
2022/08/13 11:44:17;;;;;;;1.90;1.47;;;;;;;22.24;47.52;96415.19;10331097;28;20413;-31
2022/08/13 11:49:20;;;;;;;1.20;0.80;;;;;;;22.34;47.25;96411.63;10328552;28;20049;-31
2022/08/13 11:54:22;;;;;;;1.55;1.17;;;;;;;22.23;47.40;96421.16;10326763;28;20062;-31
2022/08/13 11:59:22;;;;;;;2.55;0.80;;;;;;;22.20;47.67;96420.38;10330898;28;20034;-30
2022/08/13 12:04:23;;;;;;;2.17;1.30;;;;;;;22.15;47.62;96438.31;10324963;28;20046;-30
2022/08/13 12:09:23;;;;;;;1.67;0.98;;;;;;;22.17;47.84;96431.50;10329297;28;20035;-30
2022/08/13 12:14:24;;;;;;;2.03;1.37;;;;;;;22.15;47.90;96435.78;10329352;28;20038;-31
2022/08/13 12:19:24;;;;;;;2.25;1.25;;;;;;;22.16;47.91;96436.63;10328294;28;20129;-30
2022/08/13 12:24:25;;;;;;;3.23;1.00;;;;;;;22.10;47.83;96419.75;10325282;28;20034;-31
2022/08/13 12:29:25;;;;;;;1.00;0.90;;;;;;;22.24;47.83;96422.84;10324446;28;20486;-31
2022/08/13 12:34:26;;;;;;;1.97;1.00;;;;;;;22.36;47.42;96414.09;10326552;28;20034;-28
2022/08/13 12:39:26;;;;;;;1.00;0.90;;;;;;;22.23;47.70;96402.50;10325727;28;20040;-29
2022/08/13 12:44:26;;;;;;;1.47;1.20;;;;;;;22.18;47.78;96405.13;10328911;28;20030;-29
2022/08/13 12:49:27;;;;;;;3.07;1.10;;;;;;;22.09;47.94;96395.13;10325343;28;20039;-29
2022/08/13 12:54:28;;;;;;;1.65;1.10;;;;;;;22.01;48.09;96396.97;10327563;28;20477;-28
2022/08/13 12:59:28;;;;;;;2.70;1.08;;;;;;;22.04;48.07;96383.28;10329392;28;20030;-29
2022/08/13 13:04:28;;;;;;;1.20;1.10;;;;;;;22.06;48.35;96379.84;10326206;28;20042;-29
2022/08/13 13:09:29;;;;;;;1.57;1.00;;;;;;;22.00;48.11;96363.84;10324267;28;20035;-28
2022/08/13 13:14:30;;;;;;;1.85;1.10;;;;;;;22.08;48.40;96367.09;10323597;28;20035;-28
2022/08/13 13:19:30;;;;;;;1.00;0.70;;;;;;;22.27;47.87;96369.25;10327914;28;20047;-28
2022/08/13 13:24:31;;;;;;;0.97;0.97;;;;;;;22.29;47.82;96359.00;10323014;28;20344;-29
2022/08/13 13:29:36;;;;;;;1.92;1.40;;;;;;;22.20;48.35;96372.78;10321837;28;20481;-29
2022/08/13 13:34:37;;;;;;;2.63;1.23;;;;;;;22.18;48.28;96366.03;10325949;28;20030;-29
2022/08/13 13:39:37;;;;;;;1.35;0.98;;;;;;;22.14;48.07;96367.78;10326734;28;20034;-28
2022/08/13 13:44:38;;;;;;;1.10;1.00;;;;;;;22.11;48.21;96367.88;10326421;28;20448;-29
2022/08/13 13:49:38;;;;;;;1.67;1.10;;;;;;;22.14;48.33;96360.16;10323313;28;20301;-29
2022/08/13 13:54:38;;;;;;;0.80;0.70;;;;;;;22.17;48.45;96362.66;10325948;28;20038;-30
2022/08/13 13:59:39;;;;;;;2.97;1.63;;;;;;;22.17;48.40;96362.66;10329368;28;20034;-27
2022/08/13 14:04:40;;;;;;;1.20;0.97;;;;;;;22.25;48.18;96355.69;10325086;28;20145;-27
2022/08/13 14:09:41;;;;;;;0.60;0.60;;;;;;;22.39;47.81;96358.78;10325290;28;20093;-28
2022/08/13 14:14:41;;;;;;;0.88;0.85;;;;;;;22.28;48.17;96363.28;10323561;28;20093;-28
2022/08/13 14:19:42;;;;;;;0.98;0.88;;;;;;;22.33;48.41;96358.88;10328132;28;20484;-28
2022/08/13 14:24:44;;;;;;;2.13;1.35;;;;;;;22.36;48.64;96358.84;10321401;28;20026;-29
2022/08/13 14:29:44;;;;;;;1.15;0.82;;;;;;;22.33;48.51;96358.88;10319859;28;20034;-28
2022/08/13 14:34:45;;;;;;;1.57;1.00;;;;;;;22.37;48.44;96340.13;10322986;28;20048;-29
2022/08/13 14:39:45;;;;;;;1.48;1.00;;;;;;;22.38;48.28;96336.69;10322107;28;20105;-28
2022/08/13 14:45:39;;;;;;;2.80;0.93;;;;;;;22.41;48.56;96336.66;10320394;28;20030;-30
2022/08/13 14:50:08;;;;;;;2.10;1.33;;;;;;;22.46;48.10;96336.53;10320818;28;20340;-29
2022/08/13 14:55:11;;;;;;;1.13;0.82;;;;;;;22.54;47.70;96348.28;10320787;28;20061;-30
2022/08/13 15:00:13;;;;;;;2.05;1.38;;;;;;;22.45;48.02;96330.63;10324048;28;20048;-29
2022/08/13 15:05:13;;;;;;;1.85;1.00;;;;;;;22.41;48.12;96329.00;10323675;28;20046;-28
2022/08/13 15:10:23;;;;;;;0.77;0.77;;;;;;;22.45;48.30;96328.06;10322800;28;20046;-29
2022/08/13 15:15:25;;;;;;;1.20;0.85;;;;;;;22.47;48.20;96328.88;10322686;28;20493;-28
2022/08/13 15:20:29;;;;;;;1.63;0.80;;;;;;;22.42;48.35;96312.84;10323870;28;20026;-28
2022/08/13 15:25:30;;;;;;;1.33;1.17;;;;;;;22.45;48.13;96325.53;10319756;28;20057;-28
2022/08/13 15:30:40;;;;;;;0.97;0.90;;;;;;;22.43;48.11;96309.41;10318458;28;20046;-29
2022/08/13 15:35:43;;;;;;;0.70;0.70;;;;;;;22.45;48.00;96312.75;10318445;28;20045;-30
2022/08/13 15:40:46;;;;;;;0.80;0.80;;;;;;;22.51;47.78;96307.53;10320363;28;20030;-30
2022/08/13 15:45:47;;;;;;;0.75;0.75;;;;;;;22.40;48.16;96304.31;10319014;28;20040;-29
2022/08/13 15:50:54;;;;;;;0.90;0.80;;;;;;;22.25;48.54;96291.94;10325281;28;20045;-28
2022/08/13 15:55:56;;;;;;;1.42;1.00;;;;;;;22.20;48.68;96286.06;10329827;28;20300;-29
2022/08/13 16:00:59;;;;;;;1.15;0.88;;;;;;;22.13;48.84;96284.53;10328422;28;20037;-30
2022/08/13 16:06:00;;;;;;;1.05;0.90;;;;;;;22.13;48.57;96283.69;10330452;28;20394;-28
2022/08/13 16:11:01;;;;;;;0.95;0.70;;;;;;;22.12;48.69;96280.31;10327208;28;20034;-29
2022/08/13 16:16:03;;;;;;;0.60;0.60;;;;;;;22.09;49.23;96272.72;10325834;28;20168;-29
2022/08/13 16:21:03;;;;;;;1.10;0.80;;;;;;;22.19;48.93;96261.44;10329816;28;20281;-29
2022/08/13 16:26:05;;;;;;;0.60;0.60;;;;;;;22.35;48.54;96257.69;10322892;28;20040;-28
2022/08/13 16:31:07;;;;;;;0.93;0.88;;;;;;;22.38;48.38;96260.16;10326461;28;20409;-30
2022/08/13 16:36:09;;;;;;;0.50;0.50;;;;;;;22.25;48.64;96248.56;10327938;28;20527;-31
2022/08/13 16:41:10;;;;;;;0.68;0.65;;;;;;;22.20;48.54;96240.19;10329651;28;20501;-29
2022/08/13 16:46:13;;;;;;;0.83;0.60;;;;;;;22.21;48.99;96246.09;10327576;28;20066;-29
2022/08/13 16:51:14;;;;;;;0.80;0.80;;;;;;;22.19;48.96;96245.31;10327961;28;20034;-28
2022/08/13 16:56:14;;;;;;;0.73;0.73;;;;;;;22.17;48.85;96240.25;10325472;28;20034;-29
2022/08/13 17:01:15;;;;;;;2.67;0.88;;;;;;;22.18;48.79;96241.94;10324243;28;20038;-30
2022/08/13 17:11:36;;;;;;;1.08;0.73;;;;;;;22.40;48.60;96232.91;10329088;28;20124;-29
2022/08/13 17:16:36;;;;;;;0.80;0.57;;;;;;;22.42;48.26;96232.91;10326258;28;20508;-28
2022/08/13 17:21:39;;;;;;;0.53;0.53;;;;;;;22.29;48.70;96229.78;10324193;28;20100;-29
2022/08/13 17:26:44;;;;;;;0.93;0.93;;;;;;;22.21;48.85;96241.84;10321620;28;20658;-28
2022/08/13 17:31:44;;;;;;;1.10;1.00;;;;;;;22.18;48.92;96247.03;10322084;28;20041;-27
2022/08/13 17:36:45;;;;;;;1.90;0.60;;;;;;;22.16;48.95;96243.66;10323553;28;20041;-28
2022/08/13 17:41:47;;;;;;;0.73;0.73;;;;;;;22.22;49.28;96238.44;10326906;28;20070;-28
2022/08/13 17:46:48;;;;;;;0.90;0.80;;;;;;;22.23;49.03;96244.38;10319362;28;20495;-29
2022/08/13 17:51:51;;;;;;;1.08;0.98;;;;;;;22.20;49.09;96250.38;10325750;28;20037;-30
2022/08/13 17:56:52;;;;;;;0.70;0.70;;;;;;;22.37;48.78;96237.22;10326971;28;20034;-28
2022/08/13 18:01:52;;;;;;;0.55;0.55;;;;;;;22.46;48.53;96250.66;10325135;28;20038;-29
2022/08/13 18:06:53;;;;;;;0.93;0.73;;;;;;;22.35;48.73;96260.25;10322732;28;20045;-28
2022/08/13 18:11:54;;;;;;;1.20;0.80;;;;;;;22.23;49.06;96265.59;10326742;28;20030;-28
2022/08/13 18:16:55;;;;;;;1.60;0.90;;;;;;;22.18;49.15;96257.22;10322446;28;20454;-28
2022/08/13 18:21:56;;;;;;;0.88;0.65;;;;;;;22.16;49.07;96264.06;10321737;28;20034;-29
2022/08/13 18:26:57;;;;;;;0.80;0.80;;;;;;;22.18;49.10;96262.31;10319637;28;20030;-29
2022/08/13 18:31:57;;;;;;;1.00;0.90;;;;;;;22.19;49.00;96258.06;10325346;28;20030;-29
2022/08/13 18:36:58;;;;;;;0.80;0.80;;;;;;;22.23;49.16;96263.06;10321351;28;20053;-28
2022/08/13 18:41:58;;;;;;;0.80;0.80;;;;;;;22.45;49.18;96271.09;10324451;28;20053;-28
2022/08/13 18:46:59;;;;;;;0.60;0.60;;;;;;;22.56;48.67;96279.38;10323630;28;20029;-29
2022/08/13 18:52:01;;;;;;;0.60;0.60;;;;;;;22.51;48.88;96282.03;10323249;28;20497;-28
2022/08/13 18:57:02;;;;;;;1.73;1.00;;;;;;;22.49;49.21;96288.84;10324640;28;20034;-28
2022/08/13 19:02:03;;;;;;;1.70;0.98;;;;;;;22.48;49.17;96289.72;10321342;28;20034;-28
2022/08/13 19:07:04;;;;;;;0.70;0.70;;;;;;;22.47;49.20;96290.59;10323140;28;20030;-29
2022/08/13 19:12:07;;;;;;;0.70;0.70;;;;;;;22.49;49.25;96300.78;10323945;28;20108;-29
2022/08/13 19:17:08;;;;;;;1.08;0.93;;;;;;;22.48;49.21;96301.66;10323320;28;20206;-29
2022/08/13 19:22:08;;;;;;;0.80;0.80;;;;;;;22.48;49.41;96304.22;10319984;28;20040;-29
2022/08/13 19:27:08;;;;;;;0.70;0.70;;;;;;;22.56;48.99;96305.69;10323315;28;20049;-28
2022/08/13 19:32:10;;;;;;;0.70;0.47;;;;;;;22.65;48.69;96304.66;10328589;28;20041;-28
2022/08/13 19:37:10;;;;;;;0.77;0.77;;;;;;;22.60;49.25;96311.56;10330893;28;20042;-28
2022/08/13 19:42:29;;;;;;;0.85;0.85;;;;;;;22.55;49.14;96313.41;10310503;28;20054;-27
2022/08/13 19:47:29;;;;;;;0.70;0.60;;;;;;;22.52;49.19;96304.09;10329497;28;20034;-29
2022/08/13 19:52:29;;;;;;;0.87;0.83;;;;;;;22.52;49.28;96313.47;10330336;28;20069;-28
2022/08/13 19:57:30;;;;;;;1.17;0.90;;;;;;;22.52;49.35;96319.41;10330868;28;20034;-29
2022/08/13 20:02:30;;;;;;;0.77;0.67;;;;;;;22.50;49.51;96323.69;10328094;28;20035;-28
2022/08/13 20:07:30;;;;;;;0.97;0.97;;;;;;;22.51;49.50;96317.75;10329104;28;20376;-30
2022/08/13 20:12:31;;;;;;;0.93;0.80;;;;;;;22.54;49.15;96322.75;10330178;28;20976;-29
2022/08/13 20:17:33;;;;;;;0.80;0.70;;;;;;;22.67;48.97;96328.44;10327453;28;20448;-28
2022/08/13 20:22:34;;;;;;;1.05;0.73;;;;;;;22.63;48.85;96331.91;10325270;28;20527;-28
2022/08/13 20:27:40;;;;;;;1.23;0.70;;;;;;;22.57;49.30;96329.53;10318131;28;20034;-28
2022/08/13 20:32:40;;;;;;;1.23;0.90;;;;;;;22.55;49.28;96323.63;10322771;28;20409;-28
2022/08/13 20:37:41;;;;;;;1.05;0.95;;;;;;;22.53;49.43;96328.75;10328400;28;20045;-28
2022/08/13 20:42:53;;;;;;;0.90;0.68;;;;;;;22.54;49.55;96343.19;10331449;28;20034;-28
2022/08/13 20:47:54;;;;;;;0.70;0.70;;;;;;;22.54;49.49;96343.19;10328838;28;20077;-28
2022/08/13 20:52:54;;;;;;;1.00;0.90;;;;;;;22.52;49.63;96344.94;10327544;28;20034;-28
2022/08/13 20:57:55;;;;;;;1.05;0.70;;;;;;;22.55;49.45;96351.69;10331175;28;20492;-29
2022/08/13 21:02:55;;;;;;;0.60;0.60;;;;;;;22.64;49.04;96344.66;10328112;28;20524;-29
2022/08/13 21:07:56;;;;;;;1.02;0.70;;;;;;;22.66;48.73;96345.44;10325158;28;20300;-28
2022/08/13 21:13:00;;;;;;;0.82;0.77;;;;;;;22.62;49.11;96348.94;10327514;28;20046;-29
2022/08/13 21:18:01;;;;;;;0.60;0.60;;;;;;;22.61;49.08;96365.16;10324657;28;20026;-28
2022/08/13 21:23:01;;;;;;;0.88;0.88;;;;;;;22.60;49.32;96358.38;10325095;28;20030;-29
2022/08/13 21:28:02;;;;;;;1.03;0.90;;;;;;;22.58;49.24;96359.25;10322461;28;20033;-28
2022/08/13 21:33:05;;;;;;;0.70;0.70;;;;;;;22.41;49.04;96344.31;10323274;28;20068;-29
2022/08/13 21:38:07;;;;;;;1.08;1.00;;;;;;;22.38;49.10;96341.78;10324048;28;20520;-28
2022/08/13 21:43:08;;;;;;;1.00;0.90;;;;;;;22.32;49.05;96347.00;10326525;28;20051;-28
2022/08/13 21:48:08;;;;;;;0.85;0.80;;;;;;;22.47;49.24;96336.53;10322928;28;20038;-28
2022/08/13 21:53:17;;;;;;;0.47;0.47;;;;;;;22.57;48.89;96338.00;10323487;28;20041;-28
2022/08/13 21:58:19;;;;;;;0.70;0.70;;;;;;;22.39;49.32;96332.44;10324930;28;20428;-28
2022/08/13 22:03:27;;;;;;;0.60;0.60;;;;;;;22.27;49.38;96315.69;10322723;28;20034;-29
2022/08/13 22:08:28;;;;;;;0.65;0.65;;;;;;;22.24;49.45;96315.72;10322733;28;20026;-30
2022/08/13 22:13:30;;;;;;;0.70;0.70;;;;;;;22.23;49.39;96316.59;10325344;28;20049;-28
2022/08/13 22:18:30;;;;;;;0.55;0.55;;;;;;;22.19;49.55;96294.59;10324892;28;20497;-28
2022/08/13 22:23:31;;;;;;;0.40;0.40;;;;;;;22.13;49.39;96288.81;10321487;28;20038;-28
2022/08/13 22:33:53;;;;;;;0.65;0.63;;;;;;;22.37;49.38;96306.97;10316681;28;20030;-29
2022/08/13 22:38:53;;;;;;;0.52;0.52;;;;;;;22.53;48.84;96305.78;10324155;28;20038;-29
2022/08/13 22:43:54;;;;;;;1.63;0.50;;;;;;;22.39;49.28;96317.97;10325322;28;20033;-30
2022/08/13 22:48:57;;;;;;;0.90;0.70;;;;;;;22.31;49.39;96324.94;10321553;28;20282;-28
2022/08/13 22:53:57;;;;;;;0.98;0.90;;;;;;;22.27;49.44;96318.22;10321343;28;20031;-29
2022/08/13 22:58:58;;;;;;;0.63;0.63;;;;;;;22.22;49.53;96319.22;10323597;28;20104;-28
2022/08/13 23:04:00;;;;;;;1.07;0.97;;;;;;;22.20;49.53;96301.38;10320925;28;20393;-28
2022/08/13 23:09:00;;;;;;;0.55;0.50;;;;;;;22.18;49.63;96307.38;10322873;28;20030;-28
2022/08/13 23:14:01;;;;;;;0.60;0.60;;;;;;;22.16;49.56;96304.03;10322402;28;20038;-30
2022/08/13 23:19:02;;;;;;;0.70;0.70;;;;;;;22.33;49.65;96297.69;10324377;28;20460;-28
2022/08/13 23:24:02;;;;;;;0.60;0.60;;;;;;;22.54;49.40;96293.84;10319857;28;20283;-29
2022/08/13 23:29:03;;;;;;;0.50;0.50;;;;;;;22.39;49.20;96287.34;10318271;28;20496;-27
2022/08/13 23:34:04;;;;;;;0.60;0.50;;;;;;;22.26;49.30;96275.75;10323122;28;20070;-28
2022/08/13 23:39:06;;;;;;;0.57;0.57;;;;;;;22.23;49.53;96269.88;10323566;28;20288;-28
2022/08/13 23:44:07;;;;;;;0.80;0.70;;;;;;;22.20;49.43;96268.22;10323304;28;20027;-29
2022/08/13 23:49:08;;;;;;;0.47;0.47;;;;;;;22.15;49.65;96259.00;10322905;28;20038;-28
2022/08/13 23:54:08;;;;;;;0.50;0.50;;;;;;;22.15;49.58;96256.47;10319325;28;20046;-28
2022/08/13 23:59:08;;;;;;;1.10;0.70;;;;;;;22.17;49.82;96244.50;10323724;28;20046;-28
